Time;durP1;ratioP1;P1;durP2;ratioP2;P2;SDS_P1;SDS_P2;PMS_P1;PMS_P2;Temp;Humidity;BMP_temperature;BMP_pressure;BME280_temperature;BME280_humidity;BME280_pressure;Samples;Min_cycle;Max_cycle;Signal;HPM_P1;HPM_P2
2023/08/19 00:00:44;;;;;;;;;;;20.80;99.90;;;;;;4589828;19;20299;-66
2023/08/19 00:02:36;;;;;;;;;;;20.80;99.90;;;;;;4592313;19;19910;-66
2023/08/19 00:04:07;;;;;;;;;;;20.90;99.90;;;;;;4592638;19;19915;-66
2023/08/19 00:05:38;;;;;;;;;;;20.80;99.90;;;;;;4591434;19;19918;-66
2023/08/19 00:07:10;;;;;;;;;;;20.90;99.90;;;;;;4592701;19;19930;-66
2023/08/19 00:08:42;;;;;;;;;;;20.80;99.90;;;;;;4591216;19;20218;-66
2023/08/19 00:10:13;;;;;;;;;;;20.80;99.90;;;;;;4595120;19;20282;-66
2023/08/19 00:11:45;;;;;;;;;;;20.80;99.90;;;;;;4594936;19;19922;-66
2023/08/19 00:13:16;;;;;;;;;;;20.80;99.90;;;;;;4595165;19;20261;-66
2023/08/19 00:14:49;;;;;;;;;;;20.80;99.90;;;;;;4596302;19;19925;-66
2023/08/19 00:16:21;;;;;;;;;;;20.80;99.90;;;;;;4594784;19;19975;-66
2023/08/19 00:17:52;;;;;;;;;;;20.80;99.90;;;;;;4596820;19;19914;-66
2023/08/19 00:19:23;;;;;;;;;;;20.80;99.90;;;;;;4595624;19;19919;-66
2023/08/19 00:20:55;;;;;;;;;;;20.80;99.90;;;;;;4595861;19;19910;-66
2023/08/19 00:22:26;;;;;;;;;;;20.80;99.90;;;;;;4595479;19;19922;-66
2023/08/19 00:23:57;;;;;;;;;;;20.80;99.90;;;;;;4596607;19;20230;-66
2023/08/19 00:25:29;;;;;;;;;;;20.80;99.90;;;;;;4595711;19;19919;-66
2023/08/19 00:27:01;;;;;;;;;;;20.80;99.90;;;;;;4593358;19;19919;-66
2023/08/19 00:28:35;;;;;;;;;;;20.80;99.90;;;;;;4596079;19;20251;-66
2023/08/19 00:30:07;;;;;;;;;;;20.80;99.90;;;;;;4596883;19;19915;-66
2023/08/19 00:31:39;;;;;;;;;;;20.80;99.90;;;;;;4595787;19;19974;-66
2023/08/19 00:33:10;;;;;;;;;;;20.80;99.90;;;;;;4594623;19;19917;-66
2023/08/19 00:34:45;;;;;;;;;;;20.80;99.90;;;;;;4594261;19;20240;-66
2023/08/19 00:36:16;;;;;;;;;;;20.80;99.90;;;;;;4595761;19;19918;-66
2023/08/19 00:37:49;;;;;;;;;;;20.80;99.90;;;;;;4595667;19;19915;-66
2023/08/19 00:39:22;;;;;;;;;;;20.80;99.90;;;;;;4595677;19;20343;-66
2023/08/19 00:40:53;;;;;;;;;;;20.80;99.90;;;;;;4594810;19;20019;-66
2023/08/19 00:42:24;;;;;;;;;;;20.80;99.90;;;;;;4595581;19;20391;-66
2023/08/19 00:43:56;;;;;;;;;;;20.80;99.90;;;;;;4595620;19;19930;-66
2023/08/19 00:45:28;;;;;;;;;;;20.80;99.90;;;;;;4595519;19;20260;-66
2023/08/19 00:47:01;;;;;;;;;;;20.80;99.90;;;;;;4595503;19;19942;-66
2023/08/19 00:48:33;;;;;;;;;;;20.80;99.90;;;;;;4594120;19;19918;-66
2023/08/19 00:50:04;;;;;;;;;;;20.80;99.90;;;;;;4595059;19;19938;-66
2023/08/19 00:51:35;;;;;;;;;;;20.70;99.90;;;;;;4592533;19;20239;-66
2023/08/19 00:53:08;;;;;;;;;;;20.70;99.90;;;;;;4593810;19;19934;-66
2023/08/19 00:54:39;;;;;;;;;;;20.80;99.90;;;;;;4595359;19;19918;-66
2023/08/19 00:56:10;;;;;;;;;;;20.70;99.90;;;;;;4595465;19;19922;-66
2023/08/19 00:57:41;;;;;;;;;;;20.70;99.90;;;;;;4595303;19;19914;-66
2023/08/19 00:59:13;;;;;;;;;;;20.70;99.90;;;;;;4595422;19;20207;-66
2023/08/19 01:00:44;;;;;;;;;;;20.70;99.90;;;;;;4596666;19;19914;-66
2023/08/19 01:02:15;;;;;;;;;;;20.70;99.90;;;;;;4595654;19;19978;-66
2023/08/19 01:03:47;;;;;;;;;;;20.70;99.90;;;;;;4595262;19;19919;-66
2023/08/19 01:05:19;;;;;;;;;;;20.70;99.90;;;;;;4595505;19;19931;-66
2023/08/19 01:06:59;;;;;;;;;;;20.70;99.90;;;;;;4593852;19;19919;-66
2023/08/19 01:08:36;;;;;;;;;;;20.70;99.90;;;;;;4594786;19;19937;-66
2023/08/19 01:10:08;;;;;;;;;;;20.70;99.90;;;;;;4594026;19;19942;-66
2023/08/19 01:11:43;;;;;;;;;;;20.70;99.90;;;;;;4594739;19;19939;-66
2023/08/19 01:13:15;;;;;;;;;;;20.70;99.90;;;;;;4593827;19;19951;-66
2023/08/19 01:15:05;;;;;;;;;;;20.70;99.90;;;;;;4595281;19;19921;-66
2023/08/19 01:16:38;;;;;;;;;;;20.70;99.90;;;;;;4595215;19;19922;-66
2023/08/19 01:18:10;;;;;;;;;;;20.70;99.90;;;;;;4594891;19;19919;-66
2023/08/19 01:19:42;;;;;;;;;;;20.70;99.90;;;;;;4594906;19;19910;-66
2023/08/19 01:21:13;;;;;;;;;;;20.70;99.90;;;;;;4591699;19;19914;-67
2023/08/19 01:22:49;;;;;;;;;;;20.70;99.90;;;;;;4595125;19;19945;-66
2023/08/19 01:24:20;;;;;;;;;;;20.70;99.90;;;;;;4594851;19;20230;-66
2023/08/19 01:25:52;;;;;;;;;;;20.60;99.90;;;;;;4593762;19;19911;-65
2023/08/19 01:27:24;;;;;;;;;;;20.60;99.90;;;;;;4594342;19;19915;-66
2023/08/19 01:28:55;;;;;;;;;;;20.60;99.90;;;;;;4594962;19;19985;-66
2023/08/19 01:30:28;;;;;;;;;;;20.60;99.90;;;;;;4594402;19;19915;-66
2023/08/19 01:32:01;;;;;;;;;;;20.60;99.90;;;;;;4594569;19;19974;-66
2023/08/19 01:33:32;;;;;;;;;;;20.60;99.90;;;;;;4593432;19;19937;-66
2023/08/19 01:35:05;;;;;;;;;;;20.60;99.90;;;;;;4593540;19;19915;-66
2023/08/19 01:36:40;;;;;;;;;;;20.60;99.90;;;;;;4594404;19;20282;-66
2023/08/19 01:38:31;;;;;;;;;;;20.60;99.90;;;;;;4593462;19;19918;-66
2023/08/19 01:40:06;;;;;;;;;;;20.60;99.90;;;;;;4593646;19;19921;-66
2023/08/19 01:41:37;;;;;;;;;;;20.60;99.90;;;;;;4593193;19;19926;-66
2023/08/19 01:43:10;;;;;;;;;;;20.60;99.90;;;;;;4594669;19;20302;-66
2023/08/19 01:44:41;;;;;;;;;;;20.60;99.90;;;;;;4593267;19;19929;-66
2023/08/19 01:46:13;;;;;;;;;;;20.60;99.90;;;;;;4594208;19;19937;-66
2023/08/19 01:47:45;;;;;;;;;;;20.60;99.90;;;;;;4592943;19;20387;-66
2023/08/19 01:49:17;;;;;;;;;;;20.50;99.90;;;;;;4593246;19;20302;-66
2023/08/19 01:50:48;;;;;;;;;;;20.50;99.90;;;;;;4592419;19;19911;-66
2023/08/19 01:52:19;;;;;;;;;;;20.50;99.90;;;;;;4593882;19;19982;-66
2023/08/19 01:53:51;;;;;;;;;;;20.50;99.90;;;;;;4592845;19;19919;-66
2023/08/19 01:55:22;;;;;;;;;;;20.50;99.90;;;;;;4593774;19;19926;-66
2023/08/19 01:56:54;;;;;;;;;;;20.60;99.90;;;;;;4594491;19;19919;-66
2023/08/19 01:58:25;;;;;;;;;;;20.50;99.90;;;;;;4594053;19;19911;-66
2023/08/19 01:59:57;;;;;;;;;;;20.50;99.90;;;;;;4594033;19;19915;-66
2023/08/19 02:01:28;;;;;;;;;;;20.50;99.90;;;;;;4592825;19;19918;-66
2023/08/19 02:03:00;;;;;;;;;;;20.50;99.90;;;;;;4593979;19;20218;-66
2023/08/19 02:04:33;;;;;;;;;;;20.50;99.90;;;;;;4593949;19;19910;-66
2023/08/19 02:06:04;;;;;;;;;;;20.50;99.90;;;;;;4594018;19;19925;-66
2023/08/19 02:07:36;;;;;;;;;;;20.50;99.90;;;;;;4593882;19;19918;-66
2023/08/19 02:09:07;;;;;;;;;;;20.50;99.90;;;;;;4593829;19;20218;-66
2023/08/19 02:10:38;;;;;;;;;;;20.50;99.90;;;;;;4593403;19;19911;-66
2023/08/19 02:12:09;;;;;;;;;;;20.50;99.90;;;;;;4592344;19;20211;-66
2023/08/19 02:13:41;;;;;;;;;;;20.50;99.90;;;;;;4593424;19;20291;-66
2023/08/19 02:15:12;;;;;;;;;;;20.50;99.90;;;;;;4594023;19;20291;-66
2023/08/19 02:16:43;;;;;;;;;;;20.50;99.90;;;;;;4593687;19;19925;-66
2023/08/19 02:18:15;;;;;;;;;;;20.50;99.90;;;;;;4593977;19;19918;-66
2023/08/19 02:19:46;;;;;;;;;;;20.50;99.90;;;;;;4593636;19;19915;-66
2023/08/19 02:21:17;;;;;;;;;;;20.40;99.90;;;;;;4593073;19;19927;-66
2023/08/19 02:22:49;;;;;;;;;;;20.50;99.90;;;;;;4593892;19;19982;-66
2023/08/19 02:24:21;;;;;;;;;;;20.50;99.90;;;;;;4593825;19;19962;-66
2023/08/19 02:25:53;;;;;;;;;;;20.50;99.90;;;;;;4593577;19;19925;-66
2023/08/19 02:27:25;;;;;;;;;;;20.50;99.90;;;;;;4593483;19;19919;-66
2023/08/19 02:28:56;;;;;;;;;;;20.50;99.90;;;;;;4592133;19;19947;-66
2023/08/19 02:30:28;;;;;;;;;;;20.50;99.90;;;;;;4592730;19;19929;-66
2023/08/19 02:31:59;;;;;;;;;;;20.50;99.90;;;;;;4593400;19;19919;-66
2023/08/19 02:33:31;;;;;;;;;;;20.50;99.90;;;;;;4592052;19;19919;-66
2023/08/19 02:35:02;;;;;;;;;;;20.50;99.90;;;;;;4593706;19;19986;-66
2023/08/19 02:36:33;;;;;;;;;;;20.40;99.90;;;;;;4593242;19;19914;-66
2023/08/19 02:38:04;;;;;;;;;;;20.40;99.90;;;;;;4593587;19;19918;-66
2023/08/19 02:39:36;;;;;;;;;;;20.40;99.90;;;;;;4593181;19;20310;-66
2023/08/19 02:41:08;;;;;;;;;;;20.40;99.90;;;;;;4592469;19;19907;-66
2023/08/19 02:42:39;;;;;;;;;;;20.40;99.90;;;;;;4593557;19;19975;-66
2023/08/19 02:44:11;;;;;;;;;;;20.40;99.90;;;;;;4593171;19;20219;-66
2023/08/19 02:45:42;;;;;;;;;;;20.40;99.90;;;;;;4593213;19;19926;-66
2023/08/19 02:47:13;;;;;;;;;;;20.40;99.90;;;;;;4593426;19;19971;-66
2023/08/19 02:48:45;;;;;;;;;;;20.40;99.90;;;;;;4593109;19;19915;-66
2023/08/19 02:50:16;;;;;;;;;;;20.40;99.90;;;;;;4592980;19;19930;-66
2023/08/19 02:51:47;;;;;;;;;;;20.40;99.90;;;;;;4593385;19;19911;-66
2023/08/19 02:53:19;;;;;;;;;;;20.40;99.90;;;;;;4592221;19;19918;-66
2023/08/19 02:54:50;;;;;;;;;;;20.30;99.90;;;;;;4593014;19;20297;-66
2023/08/19 02:56:22;;;;;;;;;;;20.30;99.90;;;;;;4593325;19;19943;-66
2023/08/19 02:57:54;;;;;;;;;;;20.30;99.90;;;;;;4593287;19;19914;-66
2023/08/19 02:59:27;;;;;;;;;;;20.30;99.90;;;;;;4592972;19;19937;-66
2023/08/19 03:00:59;;;;;;;;;;;20.30;99.90;;;;;;4592093;19;19978;-66
2023/08/19 03:02:30;;;;;;;;;;;20.30;99.90;;;;;;4592863;19;19954;-66
2023/08/19 03:04:02;;;;;;;;;;;20.30;99.90;;;;;;4592833;19;19940;-66
2023/08/19 03:05:37;;;;;;;;;;;20.30;99.90;;;;;;4592899;19;19918;-66
2023/08/19 03:07:08;;;;;;;;;;;20.30;99.90;;;;;;4591794;19;20291;-66
2023/08/19 03:08:40;;;;;;;;;;;20.20;99.90;;;;;;4592411;19;19915;-66
2023/08/19 03:10:11;;;;;;;;;;;20.20;99.90;;;;;;4593108;19;19911;-66
2023/08/19 03:11:43;;;;;;;;;;;20.20;99.90;;;;;;4593119;19;19927;-66
2023/08/19 03:13:15;;;;;;;;;;;20.20;99.90;;;;;;4592130;19;19923;-66
2023/08/19 03:14:47;;;;;;;;;;;20.20;99.90;;;;;;4592653;19;20298;-66
2023/08/19 03:16:19;;;;;;;;;;;20.20;99.90;;;;;;4592611;19;20218;-66
2023/08/19 03:17:51;;;;;;;;;;;20.20;99.90;;;;;;4592661;19;19925;-66
2023/08/19 03:19:22;;;;;;;;;;;20.10;99.90;;;;;;4592606;19;19922;-66
2023/08/19 03:20:56;;;;;;;;;;;20.10;99.90;;;;;;4591954;19;19923;-66
2023/08/19 03:22:27;;;;;;;;;;;20.10;99.90;;;;;;4591225;19;19967;-66
2023/08/19 03:23:58;;;;;;;;;;;20.10;99.90;;;;;;4591574;19;20351;-66
2023/08/19 03:25:31;;;;;;;;;;;20.00;99.90;;;;;;4592081;19;19955;-66
2023/08/19 03:27:02;;;;;;;;;;;20.00;99.90;;;;;;4592497;19;19942;-66
2023/08/19 03:28:35;;;;;;;;;;;20.00;99.90;;;;;;4592767;19;19943;-66
2023/08/19 03:30:07;;;;;;;;;;;20.00;99.90;;;;;;4592800;19;19937;-66
2023/08/19 03:31:38;;;;;;;;;;;20.00;99.90;;;;;;4591139;19;20219;-66
2023/08/19 03:33:10;;;;;;;;;;;19.90;99.90;;;;;;4590223;19;19918;-66
2023/08/19 03:34:41;;;;;;;;;;;19.90;99.90;;;;;;4592275;19;19931;-66
2023/08/19 03:36:12;;;;;;;;;;;20.00;99.90;;;;;;4592409;19;19914;-66
2023/08/19 03:37:44;;;;;;;;;;;19.90;99.90;;;;;;4592379;19;19938;-66
2023/08/19 03:39:16;;;;;;;;;;;19.90;99.90;;;;;;4592262;19;19987;-66
2023/08/19 03:40:47;;;;;;;;;;;19.90;99.90;;;;;;4591647;19;19920;-66
2023/08/19 03:42:18;;;;;;;;;;;19.90;99.90;;;;;;4592241;19;20338;-66
2023/08/19 03:43:50;;;;;;;;;;;19.90;99.90;;;;;;4592226;19;19929;-66
2023/08/19 03:45:21;;;;;;;;;;;19.90;99.90;;;;;;4596063;19;19921;-66
2023/08/19 03:46:53;;;;;;;;;;;19.90;99.90;;;;;;4596835;19;20349;-66
2023/08/19 03:48:25;;;;;;;;;;;19.90;99.90;;;;;;4596830;19;20239;-66
2023/08/19 03:49:56;;;;;;;;;;;19.90;99.90;;;;;;4596742;19;20294;-66
2023/08/19 03:51:27;;;;;;;;;;;19.90;99.90;;;;;;4595312;19;19914;-66
2023/08/19 03:52:59;;;;;;;;;;;19.90;99.90;;;;;;4595817;19;19918;-66
2023/08/19 03:54:30;;;;;;;;;;;19.90;99.90;;;;;;4597042;19;19978;-66
2023/08/19 03:56:01;;;;;;;;;;;19.90;99.90;;;;;;4596691;19;19911;-66
2023/08/19 03:57:33;;;;;;;;;;;19.90;99.90;;;;;;4596950;19;19919;-66
2023/08/19 03:59:04;;;;;;;;;;;19.90;99.90;;;;;;4596570;19;19929;-66
2023/08/19 04:00:37;;;;;;;;;;;19.90;99.90;;;;;;4595840;19;20210;-66
2023/08/19 04:02:09;;;;;;;;;;;19.80;99.90;;;;;;4596572;19;19915;-66
2023/08/19 04:03:40;;;;;;;;;;;19.80;99.90;;;;;;4596524;19;19966;-66
2023/08/19 04:05:13;;;;;;;;;;;19.80;99.90;;;;;;4596808;19;19914;-66
2023/08/19 04:06:44;;;;;;;;;;;19.80;99.90;;;;;;4596818;19;20253;-66
2023/08/19 04:08:15;;;;;;;;;;;19.80;99.90;;;;;;4596420;19;19922;-66
2023/08/19 04:09:47;;;;;;;;;;;19.80;99.90;;;;;;4596398;19;19915;-66
2023/08/19 04:11:19;;;;;;;;;;;19.80;99.90;;;;;;4595011;19;19922;-66
2023/08/19 04:12:50;;;;;;;;;;;19.80;99.90;;;;;;4595958;19;19924;-66
2023/08/19 04:14:21;;;;;;;;;;;19.90;99.90;;;;;;4594952;19;19911;-66
2023/08/19 04:15:53;;;;;;;;;;;19.80;99.90;;;;;;4596225;19;19926;-66
2023/08/19 04:17:24;;;;;;;;;;;19.80;99.90;;;;;;4596225;19;19980;-66
2023/08/19 04:18:55;;;;;;;;;;;19.80;99.90;;;;;;4596172;19;19926;-66
2023/08/19 04:20:27;;;;;;;;;;;19.80;99.90;;;;;;4596100;19;19918;-66
2023/08/19 04:21:58;;;;;;;;;;;19.80;99.90;;;;;;4596167;19;19915;-66
2023/08/19 04:23:31;;;;;;;;;;;19.80;99.90;;;;;;4596024;19;19921;-66
2023/08/19 04:25:04;;;;;;;;;;;19.90;99.90;;;;;;4596019;19;19923;-66
2023/08/19 04:26:36;;;;;;;;;;;19.90;99.90;;;;;;4596067;19;19926;-66
2023/08/19 04:28:07;;;;;;;;;;;19.90;99.90;;;;;;4596065;19;20025;-66
2023/08/19 04:29:39;;;;;;;;;;;19.80;99.90;;;;;;4595951;19;19915;-66
2023/08/19 04:31:11;;;;;;;;;;;19.90;99.90;;;;;;4595197;19;19911;-66
2023/08/19 04:32:42;;;;;;;;;;;19.90;99.90;;;;;;4595370;19;19926;-66
2023/08/19 04:34:14;;;;;;;;;;;19.90;99.90;;;;;;4595819;19;19915;-66
2023/08/19 04:35:48;;;;;;;;;;;19.80;99.90;;;;;;4595848;19;19915;-66
2023/08/19 04:37:19;;;;;;;;;;;19.90;99.90;;;;;;4595772;19;19915;-66
2023/08/19 04:38:51;;;;;;;;;;;19.80;99.90;;;;;;4595722;19;19919;-63
2023/08/19 04:40:24;;;;;;;;;;;19.90;99.90;;;;;;4595409;19;19997;-64
2023/08/19 04:41:55;;;;;;;;;;;19.90;99.90;;;;;;4595657;19;19918;-65
2023/08/19 04:43:28;;;;;;;;;;;19.90;99.90;;;;;;4595531;19;20319;-66
2023/08/19 04:45:00;;;;;;;;;;;19.90;99.90;;;;;;4597643;19;19926;-65
2023/08/19 04:46:31;;;;;;;;;;;20.00;99.90;;;;;;4595624;19;19919;-65
2023/08/19 04:48:05;;;;;;;;;;;20.00;99.90;;;;;;4594213;19;19923;-65
2023/08/19 04:49:36;;;;;;;;;;;20.00;99.90;;;;;;4594915;19;19921;-65
2023/08/19 04:51:07;;;;;;;;;;;20.00;99.90;;;;;;4594825;19;19919;-65
2023/08/19 04:52:39;;;;;;;;;;;20.00;99.90;;;;;;4595056;19;19967;-65
2023/08/19 04:54:10;;;;;;;;;;;20.10;99.90;;;;;;4595421;19;20352;-65
2023/08/19 04:55:42;;;;;;;;;;;20.00;99.90;;;;;;4591365;19;19979;-65
2023/08/19 04:57:15;;;;;;;;;;;20.10;99.90;;;;;;4591988;19;19926;-65
2023/08/19 04:58:47;;;;;;;;;;;20.10;99.90;;;;;;4593094;19;19922;-65
2023/08/19 05:00:18;;;;;;;;;;;20.10;99.90;;;;;;4592846;19;19923;-65
2023/08/19 05:01:52;;;;;;;;;;;20.10;99.90;;;;;;4591400;19;19918;-65
2023/08/19 05:03:23;;;;;;;;;;;20.10;99.90;;;;;;4592891;19;19911;-65
2023/08/19 05:04:55;;;;;;;;;;;20.10;99.90;;;;;;4592952;19;19911;-65
2023/08/19 05:06:26;;;;;;;;;;;20.10;99.90;;;;;;4592935;19;19910;-65
2023/08/19 05:07:57;;;;;;;;;;;20.10;99.90;;;;;;4592947;19;20286;-65
2023/08/19 05:09:28;;;;;;;;;;;20.10;99.90;;;;;;4592906;19;19986;-65
2023/08/19 05:11:00;;;;;;;;;;;20.10;99.90;;;;;;4592076;19;19954;-65
2023/08/19 05:12:31;;;;;;;;;;;20.10;99.90;;;;;;4592111;19;20309;-65
2023/08/19 05:14:02;;;;;;;;;;;20.20;99.90;;;;;;4592689;19;19915;-65
2023/08/19 05:15:35;;;;;;;;;;;20.20;99.90;;;;;;4592602;19;19914;-65
2023/08/19 05:17:07;;;;;;;;;;;20.20;99.90;;;;;;4592521;19;19922;-65
2023/08/19 05:18:38;;;;;;;;;;;20.20;99.90;;;;;;4592856;19;19936;-65
2023/08/19 05:20:11;;;;;;;;;;;20.20;99.90;;;;;;4592816;19;19922;-65
2023/08/19 05:21:43;;;;;;;;;;;20.20;99.90;;;;;;4592539;19;19915;-65
2023/08/19 05:23:16;;;;;;;;;;;20.20;99.90;;;;;;4592505;19;19915;-65
2023/08/19 05:24:49;;;;;;;;;;;20.30;99.90;;;;;;4592400;19;20290;-65
2023/08/19 05:26:20;;;;;;;;;;;20.30;99.90;;;;;;4592589;19;19921;-65
2023/08/19 05:27:51;;;;;;;;;;;20.30;99.90;;;;;;4592338;19;19970;-65
2023/08/19 05:29:23;;;;;;;;;;;20.40;99.90;;;;;;4592440;19;19942;-65
2023/08/19 05:30:55;;;;;;;;;;;20.30;99.90;;;;;;4592511;19;19914;-65
2023/08/19 05:32:26;;;;;;;;;;;20.40;99.90;;;;;;4594358;19;19923;-65
2023/08/19 05:33:58;;;;;;;;;;;20.40;99.90;;;;;;4594419;19;19915;-65
2023/08/19 05:35:29;;;;;;;;;;;20.40;99.90;;;;;;4594674;19;19915;-65
2023/08/19 05:37:04;;;;;;;;;;;20.40;99.90;;;;;;4593171;19;19938;-65
2023/08/19 05:38:36;;;;;;;;;;;20.40;99.90;;;;;;4594145;19;19919;-65
2023/08/19 05:40:07;;;;;;;;;;;20.50;99.90;;;;;;4594473;19;19943;-65
2023/08/19 05:41:39;;;;;;;;;;;20.40;99.90;;;;;;4593203;19;19966;-65
2023/08/19 05:43:11;;;;;;;;;;;20.50;99.90;;;;;;4594429;19;19919;-65
2023/08/19 05:44:43;;;;;;;;;;;20.50;99.90;;;;;;4594743;19;19918;-65
2023/08/19 05:46:14;;;;;;;;;;;20.50;99.90;;;;;;4594360;19;19937;-65
2023/08/19 05:47:45;;;;;;;;;;;20.60;99.90;;;;;;4594293;19;19918;-65
2023/08/19 05:49:17;;;;;;;;;;;20.50;99.90;;;;;;4594275;19;19921;-64
2023/08/19 05:50:48;;;;;;;;;;;20.60;99.90;;;;;;4594041;19;19997;-65
2023/08/19 05:52:20;;;;;;;;;;;20.60;99.90;;;;;;4594641;19;20348;-65
2023/08/19 05:53:53;;;;;;;;;;;20.60;99.90;;;;;;4592894;19;20214;-65
2023/08/19 05:55:24;;;;;;;;;;;20.60;99.90;;;;;;4594041;19;19915;-65
2023/08/19 05:56:57;;;;;;;;;;;20.70;99.90;;;;;;4594141;19;19923;-65
2023/08/19 05:58:31;;;;;;;;;;;20.70;99.90;;;;;;4592524;19;19914;-65
2023/08/19 06:00:03;;;;;;;;;;;20.70;99.90;;;;;;4593668;19;19919;-65
2023/08/19 06:01:35;;;;;;;;;;;20.70;99.90;;;;;;4591129;19;19982;-65
2023/08/19 06:03:06;;;;;;;;;;;20.70;99.90;;;;;;4593918;19;19919;-65
2023/08/19 06:04:39;;;;;;;;;;;20.80;99.90;;;;;;4593841;19;19925;-65
2023/08/19 06:06:10;;;;;;;;;;;20.80;99.90;;;;;;4594274;19;19915;-65
2023/08/19 06:07:42;;;;;;;;;;;20.80;99.90;;;;;;4592845;19;19962;-65
2023/08/19 06:09:13;;;;;;;;;;;20.80;99.90;;;;;;4593827;19;20287;-65
2023/08/19 06:10:53;;;;;;;;;;;20.90;99.90;;;;;;4593306;19;19923;-65
2023/08/19 06:12:25;;;;;;;;;;;20.90;99.90;;;;;;4592273;19;20214;-65
2023/08/19 06:13:58;;;;;;;;;;;20.90;99.90;;;;;;4593362;19;19974;-65
2023/08/19 06:15:29;;;;;;;;;;;20.90;99.90;;;;;;4593764;19;19914;-65
2023/08/19 06:17:01;;;;;;;;;;;20.90;99.90;;;;;;4593954;19;19966;-65
2023/08/19 06:18:33;;;;;;;;;;;21.00;99.90;;;;;;4592307;19;19919;-65
2023/08/19 06:20:05;;;;;;;;;;;21.00;99.90;;;;;;4593221;19;19914;-64
2023/08/19 06:21:37;;;;;;;;;;;21.00;99.90;;;;;;4592462;19;20294;-65
2023/08/19 06:23:08;;;;;;;;;;;21.00;99.90;;;;;;4593608;19;19915;-65
2023/08/19 06:24:40;;;;;;;;;;;21.00;99.90;;;;;;4593830;19;19928;-64
2023/08/19 06:26:11;;;;;;;;;;;21.10;99.90;;;;;;4593528;19;19948;-65
2023/08/19 06:27:43;;;;;;;;;;;21.10;99.90;;;;;;4593482;19;19928;-65
2023/08/19 06:29:17;;;;;;;;;;;21.10;99.90;;;;;;4593435;19;19914;-66
2023/08/19 06:30:49;;;;;;;;;;;21.10;99.90;;;;;;4592932;19;19915;-66
2023/08/19 06:32:21;;;;;;;;;;;21.10;99.90;;;;;;4593400;19;20363;-66
2023/08/19 06:33:54;;;;;;;;;;;21.20;99.90;;;;;;4592266;19;20226;-66
2023/08/19 06:35:26;;;;;;;;;;;21.30;99.90;;;;;;4593117;19;20218;-66
2023/08/19 06:36:57;;;;;;;;;;;21.30;99.90;;;;;;4593098;19;20241;-66
2023/08/19 06:38:29;;;;;;;;;;;21.40;99.90;;;;;;4593272;19;19915;-67
2023/08/19 06:40:06;;;;;;;;;;;21.40;99.90;;;;;;4593277;19;20294;-67
2023/08/19 06:41:40;;;;;;;;;;;21.40;99.90;;;;;;4591228;19;20222;-67
2023/08/19 06:43:12;;;;;;;;;;;21.40;99.90;;;;;;4591877;19;19982;-66
2023/08/19 06:44:44;;;;;;;;;;;21.40;99.90;;;;;;4592172;19;19919;-65
2023/08/19 06:46:16;;;;;;;;;;;21.50;99.90;;;;;;4591843;19;19941;-66
2023/08/19 06:47:48;;;;;;;;;;;21.50;99.90;;;;;;4593029;19;19926;-66
2023/08/19 06:49:20;;;;;;;;;;;21.60;99.90;;;;;;4593109;19;19919;-67
2023/08/19 06:50:51;;;;;;;;;;;21.60;99.90;;;;;;4592802;19;19915;-67
2023/08/19 06:52:23;;;;;;;;;;;21.60;99.90;;;;;;4593012;19;19945;-67
2023/08/19 06:53:59;;;;;;;;;;;21.60;99.90;;;;;;4593060;19;19981;-67
2023/08/19 06:55:31;;;;;;;;;;;21.70;99.90;;;;;;4593076;19;19929;-66
2023/08/19 06:57:03;;;;;;;;;;;21.70;99.90;;;;;;4591927;19;19930;-67
2023/08/19 06:58:44;;;;;;;;;;;21.70;99.90;;;;;;4592248;19;19923;-67
2023/08/19 07:00:15;;;;;;;;;;;21.70;99.90;;;;;;4592111;19;19918;-67
2023/08/19 07:01:53;;;;;;;;;;;21.70;99.90;;;;;;4591261;19;19926;-67
2023/08/19 07:03:27;;;;;;;;;;;21.80;99.90;;;;;;4592226;19;20273;-63
2023/08/19 07:04:59;;;;;;;;;;;21.70;99.90;;;;;;4592447;19;19915;-66
2023/08/19 07:06:32;;;;;;;;;;;21.70;99.90;;;;;;4592430;19;19919;-68
2023/08/19 07:08:06;;;;;;;;;;;21.70;99.90;;;;;;4592133;19;19919;-67
2023/08/19 07:09:37;;;;;;;;;;;21.80;99.90;;;;;;4592199;19;19919;-68
2023/08/19 07:11:09;;;;;;;;;;;21.80;99.90;;;;;;4590255;19;19919;-66
2023/08/19 07:12:41;;;;;;;;;;;21.80;99.90;;;;;;4591610;19;19914;-68
2023/08/19 07:14:13;;;;;;;;;;;21.90;99.90;;;;;;4590639;19;19914;-68
2023/08/19 07:15:46;;;;;;;;;;;21.90;99.90;;;;;;4590947;19;20314;-69
2023/08/19 07:17:18;;;;;;;;;;;21.90;99.90;;;;;;4590898;19;19918;-69
2023/08/19 07:18:51;;;;;;;;;;;22.00;99.90;;;;;;4590809;19;19910;-69
2023/08/19 07:20:23;;;;;;;;;;;22.00;99.90;;;;;;4595028;19;19922;-69
2023/08/19 07:21:54;;;;;;;;;;;22.00;99.90;;;;;;4595163;19;19914;-69
2023/08/19 07:23:25;;;;;;;;;;;22.00;99.90;;;;;;4596615;19;19918;-68
2023/08/19 07:24:57;;;;;;;;;;;22.00;99.90;;;;;;4596952;19;19919;-68
2023/08/19 07:26:30;;;;;;;;;;;22.10;99.90;;;;;;4595385;19;19926;-68
2023/08/19 07:28:04;;;;;;;;;;;22.10;99.90;;;;;;4596502;19;19925;-68
2023/08/19 07:29:44;;;;;;;;;;;22.20;99.90;;;;;;4596604;19;19947;-68
2023/08/19 07:31:17;;;;;;;;;;;22.20;99.90;;;;;;4594142;19;19929;-69
2023/08/19 07:32:51;;;;;;;;;;;22.20;99.90;;;;;;4595954;19;19974;-69
2023/08/19 07:34:28;;;;;;;;;;;22.30;99.90;;;;;;4596795;19;20301;-68
2023/08/19 07:36:00;;;;;;;;;;;22.30;99.90;;;;;;4595435;19;19914;-69
2023/08/19 07:37:31;;;;;;;;;;;22.30;99.90;;;;;;4595135;19;19990;-68
2023/08/19 07:39:04;;;;;;;;;;;22.30;99.90;;;;;;4595359;19;19918;-68
2023/08/19 07:40:35;;;;;;;;;;;22.40;99.90;;;;;;4595890;19;20274;-68
2023/08/19 07:42:06;;;;;;;;;;;22.40;99.90;;;;;;4596426;19;19924;-68
2023/08/19 07:43:40;;;;;;;;;;;22.40;99.90;;;;;;4596235;19;19922;-69
2023/08/19 07:45:15;;;;;;;;;;;22.40;99.90;;;;;;4596525;19;19915;-69
2023/08/19 07:46:49;;;;;;;;;;;22.40;99.90;;;;;;4595048;19;19919;-68
2023/08/19 07:48:24;;;;;;;;;;;22.40;99.90;;;;;;4595774;19;19914;-68
2023/08/19 07:49:57;;;;;;;;;;;22.50;99.90;;;;;;4596175;19;20010;-69
2023/08/19 07:51:29;;;;;;;;;;;22.50;99.90;;;;;;4594603;19;19918;-68
2023/08/19 07:53:00;;;;;;;;;;;22.50;99.90;;;;;;4594483;19;19919;-68
2023/08/19 07:54:32;;;;;;;;;;;22.50;99.90;;;;;;4595077;19;19922;-68
2023/08/19 07:56:04;;;;;;;;;;;22.50;99.90;;;;;;4595925;19;19918;-69
2023/08/19 07:57:37;;;;;;;;;;;22.50;99.90;;;;;;4595208;19;19974;-69
2023/08/19 07:59:10;;;;;;;;;;;22.60;99.90;;;;;;4595755;19;19982;-68
2023/08/19 08:00:42;;;;;;;;;;;22.60;99.90;;;;;;4594124;19;19914;-68
2023/08/19 08:02:13;;;;;;;;;;;22.60;99.90;;;;;;4595692;19;19919;-68
2023/08/19 08:03:45;;;;;;;;;;;22.60;99.90;;;;;;4594475;19;19918;-68
2023/08/19 08:05:16;;;;;;;;;;;22.50;99.90;;;;;;4596080;19;19914;-67
2023/08/19 08:06:49;;;;;;;;;;;22.60;99.90;;;;;;4595822;19;19918;-67
2023/08/19 08:08:20;;;;;;;;;;;22.50;99.90;;;;;;4596052;19;19945;-67
2023/08/19 08:09:51;;;;;;;;;;;22.60;99.90;;;;;;4595668;19;19948;-67
2023/08/19 08:11:22;;;;;;;;;;;22.60;99.90;;;;;;4594428;19;20212;-68
2023/08/19 08:12:54;;;;;;;;;;;22.60;99.90;;;;;;4594903;19;19929;-68
2023/08/19 08:14:25;;;;;;;;;;;22.60;99.90;;;;;;4595522;19;19948;-67
2023/08/19 08:15:58;;;;;;;;;;;22.70;99.90;;;;;;4595336;19;19941;-68
2023/08/19 08:17:30;;;;;;;;;;;22.60;99.90;;;;;;4595998;19;20291;-66
2023/08/19 08:19:02;;;;;;;;;;;22.70;99.90;;;;;;4595358;19;19947;-67
2023/08/19 08:20:33;;;;;;;;;;;22.70;99.90;;;;;;4594967;19;19918;-67
2023/08/19 08:22:05;;;;;;;;;;;22.70;99.90;;;;;;4593234;19;19922;-67
2023/08/19 08:23:36;;;;;;;;;;;22.80;99.90;;;;;;4592856;19;20222;-67
2023/08/19 08:25:09;;;;;;;;;;;22.80;99.90;;;;;;4593389;19;19921;-67
2023/08/19 08:26:40;;;;;;;;;;;22.80;99.90;;;;;;4593516;19;19918;-67
2023/08/19 08:28:12;;;;;;;;;;;22.80;99.90;;;;;;4593248;19;19919;-67
2023/08/19 08:29:44;;;;;;;;;;;22.80;99.90;;;;;;4593409;19;19921;-67
2023/08/19 08:31:16;;;;;;;;;;;22.80;99.90;;;;;;4594004;19;19915;-67
2023/08/19 08:32:47;;;;;;;;;;;22.80;99.90;;;;;;4595069;19;19931;-67
2023/08/19 08:34:19;;;;;;;;;;;22.80;99.90;;;;;;4595024;19;19956;-68
2023/08/19 08:35:50;;;;;;;;;;;22.90;99.90;;;;;;4593182;19;19915;-67
2023/08/19 08:37:21;;;;;;;;;;;22.90;99.90;;;;;;4593802;19;19935;-67
2023/08/19 08:38:53;;;;;;;;;;;22.90;99.90;;;;;;4594204;19;19919;-67
2023/08/19 08:40:24;;;;;;;;;;;22.90;99.90;;;;;;4593334;19;20211;-68
2023/08/19 08:41:55;;;;;;;;;;;22.90;99.90;;;;;;4593237;19;19942;-68
2023/08/19 08:43:27;;;;;;;;;;;23.00;99.90;;;;;;4593241;19;19974;-68
2023/08/19 08:44:58;;;;;;;;;;;23.00;99.90;;;;;;4595729;19;20287;-67
2023/08/19 08:46:30;;;;;;;;;;;23.00;99.90;;;;;;4593860;19;19958;-67
2023/08/19 08:48:01;;;;;;;;;;;23.10;99.90;;;;;;4593963;19;19919;-68
2023/08/19 08:49:33;;;;;;;;;;;23.10;99.90;;;;;;4594402;19;20646;-67
2023/08/19 08:51:04;;;;;;;;;;;23.20;99.90;;;;;;4591848;19;19978;-68
2023/08/19 08:52:36;;;;;;;;;;;23.20;99.90;;;;;;4593168;19;19937;-67
2023/08/19 08:54:07;;;;;;;;;;;23.20;99.90;;;;;;4592091;19;20195;-67
2023/08/19 08:55:39;;;;;;;;;;;23.20;99.90;;;;;;4591895;19;19922;-67